createdAt,value
2024-02-29T00:00:27.837Z,6.44
2024-02-29T00:02:56.951Z,6.29
2024-02-29T00:05:23.925Z,6.32
2024-02-29T00:07:50.927Z,6.36
2024-02-29T00:10:20.784Z,6.33
2024-02-29T00:12:49.311Z,6.32
2024-02-29T00:15:16.290Z,6.19
2024-02-29T00:17:46.183Z,6.12
2024-02-29T00:20:13.210Z,6.14
2024-02-29T00:22:40.274Z,6.21
2024-02-29T00:25:08.796Z,6.21
2024-02-29T00:27:40.966Z,6.15
2024-02-29T00:30:09.967Z,6.13
2024-02-29T00:32:37.036Z,6.04
2024-02-29T00:35:04.766Z,5.95
2024-02-29T00:37:31.760Z,6.03
2024-02-29T00:39:58.745Z,5.95
2024-02-29T00:42:25.743Z,5.86
2024-02-29T00:44:55.348Z,6.04
2024-02-29T00:47:22.339Z,5.98
2024-02-29T00:49:49.271Z,6.00
2024-02-29T00:52:16.459Z,6.04
2024-02-29T00:54:43.441Z,6.00
2024-02-29T00:57:13.361Z,5.89
2024-02-29T00:59:40.447Z,5.74
2024-02-29T01:02:09.975Z,5.86
2024-02-29T01:04:36.937Z,5.85
2024-02-29T01:07:03.990Z,5.84
2024-02-29T01:09:30.998Z,5.83
2024-02-29T01:11:58.103Z,5.69
2024-02-29T01:14:27.223Z,5.72
2024-02-29T01:16:54.220Z,5.69
2024-02-29T01:19:26.755Z,5.69
2024-02-29T01:21:54.769Z,5.69
2024-02-29T01:24:21.752Z,5.65
2024-02-29T01:26:51.819Z,5.54
2024-02-29T01:29:18.718Z,5.48
2024-02-29T01:31:45.701Z,5.53
2024-02-29T01:34:16.897Z,5.57
2024-02-29T01:36:47.054Z,5.62
2024-02-29T01:39:16.290Z,5.65
2024-02-29T01:41:43.523Z,5.48
2024-02-29T01:44:10.453Z,5.44
2024-02-29T01:46:37.453Z,5.48
2024-02-29T01:49:06.128Z,5.45
2024-02-29T01:51:34.063Z,5.34
2024-02-29T01:54:04.577Z,5.30
2024-02-29T01:56:32.022Z,5.32
2024-02-29T01:59:00.730Z,5.34
2024-02-29T02:01:28.693Z,5.18
2024-02-29T02:03:57.274Z,5.10
2024-02-29T02:06:24.766Z,5.19
2024-02-29T02:08:52.180Z,5.23
2024-02-29T02:11:21.982Z,5.26
2024-02-29T02:13:48.927Z,5.22
2024-02-29T02:16:16.415Z,5.21
2024-02-29T02:18:43.490Z,5.06
2024-02-29T02:21:13.099Z,5.12
2024-02-29T02:23:40.013Z,5.22
2024-02-29T02:26:06.969Z,5.12
2024-02-29T02:28:34.121Z,5.06
2024-02-29T02:31:01.121Z,5.10
2024-02-29T02:33:28.154Z,5.08
2024-02-29T02:35:55.160Z,5.01
2024-02-29T02:38:25.460Z,5.01
2024-02-29T02:40:52.529Z,5.04
2024-02-29T02:43:19.537Z,5.14
2024-02-29T02:45:46.556Z,4.95
2024-02-29T02:48:13.731Z,4.98
2024-02-29T02:50:40.889Z,5.00
2024-02-29T02:53:07.864Z,4.96
2024-02-29T02:55:38.561Z,4.98
2024-02-29T02:58:05.696Z,4.92
2024-02-29T03:00:34.730Z,4.99
2024-02-29T03:03:03.211Z,4.95
2024-02-29T03:05:30.126Z,4.83
2024-02-29T03:07:57.330Z,4.62
2024-02-29T03:10:24.371Z,4.79
2024-02-29T03:12:54.018Z,4.68
2024-02-29T03:15:20.979Z,4.76
2024-02-29T03:17:47.980Z,4.92
2024-02-29T03:20:14.998Z,4.87
2024-02-29T03:22:42.983Z,4.80
2024-02-29T03:25:11.141Z,4.76
2024-02-29T03:27:38.266Z,4.79
2024-02-29T03:30:09.559Z,4.77
2024-02-29T03:32:36.489Z,4.68
2024-02-29T03:35:04.003Z,4.74
2024-02-29T03:37:34.026Z,4.46
2024-02-29T03:40:05.934Z,4.56
2024-02-29T03:42:33.461Z,4.64
2024-02-29T03:45:00.583Z,4.68
2024-02-29T03:47:32.143Z,4.72
2024-02-29T03:50:01.631Z,4.74
2024-02-29T03:52:28.594Z,4.70
2024-02-29T03:54:55.597Z,4.70
2024-02-29T03:57:22.542Z,4.65
2024-02-29T03:59:49.520Z,4.60
2024-02-29T04:02:18.670Z,4.49
2024-02-29T04:04:48.265Z,4.55
2024-02-29T04:07:15.257Z,4.51
2024-02-29T04:09:42.216Z,4.46
2024-02-29T04:12:09.612Z,4.55
2024-02-29T04:14:36.548Z,4.47
2024-02-29T04:17:04.480Z,4.51
2024-02-29T04:19:31.451Z,4.52
2024-02-29T04:22:02.525Z,4.46
2024-02-29T04:24:31.112Z,4.41
2024-02-29T04:26:58.027Z,4.45
2024-02-29T04:29:25.048Z,4.50
2024-02-29T04:31:52.032Z,4.36
2024-02-29T04:34:19.106Z,4.39
2024-02-29T04:36:46.209Z,4.42
2024-02-29T04:39:16.031Z,4.42
2024-02-29T04:41:43.171Z,4.31
2024-02-29T04:44:10.520Z,3.99
2024-02-29T04:46:37.460Z,3.94
2024-02-29T04:49:05.847Z,3.68
2024-02-29T04:51:32.903Z,3.78
2024-02-29T04:53:59.806Z,3.73
2024-02-29T04:56:29.362Z,3.80
2024-02-29T04:58:56.400Z,3.70
2024-02-29T05:01:23.420Z,3.79
2024-02-29T05:03:50.542Z,3.85
2024-02-29T05:06:18.600Z,3.85
2024-02-29T05:08:45.823Z,3.84
2024-02-29T05:11:15.070Z,3.92
2024-02-29T05:13:44.615Z,3.96
2024-02-29T05:16:17.135Z,3.90
2024-02-29T05:18:44.241Z,3.80
2024-02-29T05:21:11.624Z,3.68
2024-02-29T05:23:38.635Z,3.66
2024-02-29T05:26:06.225Z,3.41
2024-02-29T05:28:33.137Z,3.46
2024-02-29T05:31:02.778Z,3.17
2024-02-29T05:33:29.836Z,3.30
2024-02-29T05:35:57.190Z,3.29
2024-02-29T05:38:24.130Z,3.17
2024-02-29T05:40:51.121Z,3.35
2024-02-29T05:43:18.195Z,3.31
2024-02-29T05:45:45.223Z,3.06
2024-02-29T05:48:14.878Z,2.85
2024-02-29T05:50:41.880Z,2.71
2024-02-29T05:53:08.894Z,2.75
2024-02-29T05:55:35.921Z,2.74
2024-02-29T05:58:02.968Z,2.44
2024-02-29T06:00:30.344Z,2.35
2024-02-29T06:02:57.301Z,2.50
2024-02-29T06:05:26.944Z,2.90
2024-02-29T06:07:53.917Z,2.85
2024-02-29T06:10:20.960Z,2.81
2024-02-29T06:12:50.856Z,2.49
2024-02-29T06:15:17.974Z,2.63
2024-02-29T06:17:45.195Z,2.73
2024-02-29T06:20:13.205Z,2.86
2024-02-29T06:22:43.672Z,2.82
2024-02-29T06:25:13.449Z,2.80
2024-02-29T06:27:40.878Z,2.96
2024-02-29T06:30:09.811Z,2.98
2024-02-29T06:32:37.338Z,3.19
2024-02-29T06:35:06.047Z,3.18
2024-02-29T06:37:33.086Z,3.25
2024-02-29T06:40:03.068Z,3.26
2024-02-29T06:42:30.025Z,3.36
2024-02-29T06:44:57.224Z,3.52
2024-02-29T06:47:26.465Z,3.54
2024-02-29T06:49:53.436Z,3.52
2024-02-29T06:52:20.484Z,3.56
2024-02-29T06:54:47.513Z,3.57
2024-02-29T06:57:17.059Z,3.67
2024-02-29T06:59:43.995Z,3.72
2024-02-29T07:02:17.455Z,3.25
2024-02-29T07:04:46.669Z,3.11
2024-02-29T07:07:18.122Z,3.00
2024-02-29T07:09:47.910Z,3.44
2024-02-29T07:12:19.919Z,3.34
2024-02-29T07:14:47.957Z,3.30
2024-02-29T07:17:15.118Z,3.55
2024-02-29T07:19:42.120Z,3.45
2024-02-29T07:22:09.236Z,3.58
2024-02-29T07:24:36.224Z,3.63
2024-02-29T07:27:03.263Z,3.75
2024-02-29T07:29:33.034Z,3.81
2024-02-29T07:32:02.439Z,3.87
2024-02-29T07:34:29.395Z,3.92
2024-02-29T07:36:56.470Z,3.87
2024-02-29T07:39:23.938Z,3.55
2024-02-29T07:41:54.084Z,3.68
2024-02-29T07:44:24.112Z,3.94
2024-02-29T07:46:57.905Z,3.72
2024-02-29T07:49:24.869Z,4.10
2024-02-29T07:52:06.176Z,4.20
2024-02-29T07:54:34.866Z,4.37
2024-02-29T07:57:02.849Z,3.83
2024-02-29T07:59:31.293Z,3.70
2024-02-29T08:02:00.904Z,3.42
2024-02-29T08:04:27.976Z,3.70
2024-02-29T08:07:00.152Z,4.16
2024-02-29T08:09:27.301Z,4.35
2024-02-29T08:11:56.872Z,4.43
2024-02-29T08:14:25.496Z,4.56
2024-02-29T08:16:52.493Z,4.57
2024-02-29T08:19:25.061Z,4.47
2024-02-29T08:21:52.368Z,4.62
2024-02-29T08:24:21.808Z,4.74
2024-02-29T08:26:49.846Z,4.72
2024-02-29T08:29:19.347Z,4.73
2024-02-29T08:31:47.448Z,4.63
2024-02-29T08:34:16.647Z,4.71
2024-02-29T08:36:47.576Z,4.71
2024-02-29T08:39:14.530Z,4.69
2024-02-29T08:41:45.950Z,4.63
2024-02-29T08:44:15.773Z,4.85
2024-02-29T08:46:42.791Z,4.97
2024-02-29T08:49:17.148Z,4.86
2024-02-29T08:51:47.000Z,4.84
2024-02-29T08:54:16.384Z,4.72
2024-02-29T08:56:46.893Z,4.85
2024-02-29T08:59:15.758Z,5.11
2024-02-29T09:01:45.233Z,5.21
2024-02-29T09:04:12.305Z,5.34
2024-02-29T09:06:41.851Z,5.42
2024-02-29T09:09:11.964Z,5.52
2024-02-29T09:11:39.191Z,5.55
2024-02-29T09:14:12.779Z,5.51
2024-02-29T09:16:43.189Z,5.60
2024-02-29T09:19:14.170Z,5.64
2024-02-29T09:21:43.394Z,5.59
2024-02-29T09:24:16.097Z,5.46
2024-02-29T09:26:43.355Z,5.56
2024-02-29T09:29:10.380Z,5.62
2024-02-29T09:31:38.936Z,5.80
2024-02-29T09:34:05.987Z,6.00
2024-02-29T09:36:34.506Z,5.88
2024-02-29T09:39:05.717Z,5.89
2024-02-29T09:41:58.531Z,5.93
2024-02-29T09:44:27.083Z,6.03
2024-02-29T09:46:54.141Z,6.17
2024-02-29T09:49:21.193Z,6.13
2024-02-29T09:51:48.718Z,6.27
2024-02-29T09:54:17.987Z,6.32
2024-02-29T09:56:47.989Z,6.49
2024-02-29T09:59:17.878Z,6.49
2024-02-29T10:01:47.675Z,6.57
2024-02-29T10:04:15.178Z,6.68
2024-02-29T10:06:43.323Z,6.66
2024-02-29T10:09:12.832Z,6.95
2024-02-29T10:11:41.433Z,7.16
2024-02-29T10:14:22.751Z,7.11
2024-02-29T10:16:50.506Z,7.27
2024-02-29T10:19:17.624Z,7.47
2024-02-29T10:21:44.877Z,7.53
2024-02-29T10:24:11.862Z,7.72
2024-02-29T10:26:41.580Z,7.81
2024-02-29T10:29:11.400Z,8.04
2024-02-29T10:31:43.233Z,8.24
2024-02-29T10:34:11.180Z,8.40
2024-02-29T10:36:38.874Z,8.45
2024-02-29T10:39:05.889Z,8.63
2024-02-29T10:41:34.067Z,8.82
2024-02-29T10:44:08.294Z,9.12
2024-02-29T10:46:37.713Z,9.17
2024-02-29T10:51:56.225Z,9.59
2024-02-29T10:54:35.730Z,9.86
2024-02-29T10:57:11.165Z,10.09
2024-02-29T10:59:48.164Z,10.34
2024-02-29T11:02:16.625Z,10.53
2024-02-29T11:04:47.363Z,10.61
2024-02-29T11:07:18.277Z,11.38
2024-02-29T11:09:45.838Z,11.64
2024-02-29T11:12:15.043Z,12.38
2024-02-29T11:14:45.286Z,14.19
2024-02-29T11:17:14.641Z,14.14
2024-02-29T11:19:48.013Z,14.90
2024-02-29T11:22:32.435Z,15.70
2024-02-29T11:24:59.407Z,16.85
2024-02-29T11:27:34.695Z,17.72
2024-02-29T11:30:04.676Z,17.19
2024-02-29T11:32:31.819Z,17.89
2024-02-29T11:34:59.719Z,18.77
2024-02-29T11:37:33.616Z,17.82
2024-02-29T11:40:06.566Z,18.21
2024-02-29T11:42:33.930Z,19.07
2024-02-29T11:45:00.927Z,18.36
2024-02-29T11:47:30.228Z,19.44
2024-02-29T11:50:01.468Z,20.57
2024-02-29T11:52:31.127Z,21.90
2024-02-29T11:55:02.167Z,21.74
2024-02-29T11:57:29.606Z,22.00
2024-02-29T11:59:56.886Z,22.95
2024-02-29T12:02:26.174Z,24.14
2024-02-29T12:04:56.055Z,22.89
2024-02-29T12:07:27.212Z,24.18
2024-02-29T12:12:42.208Z,26.23
2024-02-29T12:15:11.246Z,25.50
2024-02-29T12:17:41.130Z,29.85
2024-02-29T12:20:09.255Z,31.73
2024-02-29T12:22:39.897Z,30.97
2024-02-29T12:25:19.715Z,31.76
2024-02-29T12:27:46.982Z,32.50
2024-02-29T12:30:14.987Z,32.33
2024-02-29T12:32:44.592Z,32.28
2024-02-29T12:35:15.886Z,32.98
2024-02-29T12:37:43.333Z,33.84
2024-02-29T12:40:16.297Z,35.09
2024-02-29T12:42:46.806Z,35.88
2024-02-29T12:45:19.296Z,35.27
2024-02-29T12:47:46.877Z,33.63
2024-02-29T12:50:14.142Z,35.65
2024-02-29T12:52:45.861Z,36.49
2024-02-29T12:55:15.838Z,37.61
2024-02-29T12:57:43.296Z,37.51
2024-02-29T13:00:21.218Z,37.91
2024-02-29T13:02:48.567Z,36.66
2024-02-29T13:05:18.207Z,36.47
2024-02-29T13:07:45.855Z,36.91
2024-02-29T13:10:17.967Z,38.03
2024-02-29T13:12:54.208Z,38.47
2024-02-29T13:15:25.180Z,38.34
2024-02-29T13:17:53.422Z,37.17
2024-02-29T13:20:30.978Z,37.40
2024-02-29T13:23:00.384Z,36.20
2024-02-29T13:25:32.572Z,35.95
2024-02-29T13:28:00.378Z,35.88
2024-02-29T13:30:27.365Z,36.56
2024-02-29T13:32:54.397Z,36.96
2024-02-29T13:35:23.761Z,37.01
2024-02-29T13:37:56.028Z,34.68
2024-02-29T13:40:24.611Z,36.51
2024-02-29T13:42:54.385Z,36.17
2024-02-29T13:45:22.554Z,35.79
2024-02-29T13:47:51.351Z,34.93
2024-02-29T13:50:22.390Z,36.24
2024-02-29T13:52:49.634Z,35.19
2024-02-29T13:55:16.905Z,34.67
2024-02-29T13:57:44.874Z,33.34
2024-02-29T14:00:14.867Z,30.99
2024-02-29T14:02:41.827Z,31.63
2024-02-29T14:05:10.157Z,32.86
2024-02-29T14:07:38.287Z,31.78
2024-02-29T14:10:06.570Z,32.90
2024-02-29T14:12:36.799Z,32.53
2024-02-29T14:15:04.328Z,32.56
2024-02-29T14:17:40.076Z,33.50
2024-02-29T14:20:12.391Z,31.66
2024-02-29T14:22:42.394Z,32.79
2024-02-29T14:25:11.818Z,34.05
2024-02-29T14:27:43.028Z,33.63
2024-02-29T14:30:11.251Z,32.31
2024-02-29T14:32:42.312Z,31.65
2024-02-29T14:35:11.854Z,33.14
2024-02-29T14:37:40.030Z,32.43
2024-02-29T14:40:11.055Z,32.81
2024-02-29T14:42:38.120Z,31.14
2024-02-29T14:45:06.283Z,31.66
2024-02-29T14:47:36.433Z,31.71
2024-02-29T14:50:09.059Z,30.58
2024-02-29T14:52:41.089Z,30.20
2024-02-29T14:55:10.982Z,30.45
2024-02-29T14:57:46.781Z,30.34
2024-02-29T15:00:14.725Z,30.19
2024-02-29T15:02:42.220Z,29.90
2024-02-29T15:05:12.923Z,28.81
2024-02-29T15:07:46.695Z,28.45
2024-02-29T15:10:21.134Z,28.24
2024-02-29T15:12:48.275Z,28.38
2024-02-29T15:15:15.777Z,26.18
2024-02-29T15:17:43.463Z,26.86
2024-02-29T15:20:13.365Z,27.01
2024-02-29T15:22:42.958Z,26.91
2024-02-29T15:25:17.354Z,26.43
2024-02-29T15:27:45.547Z,24.52
2024-02-29T15:30:13.299Z,22.85
2024-02-29T15:32:40.363Z,21.56
2024-02-29T15:35:14.591Z,20.51
2024-02-29T15:37:42.282Z,19.91
2024-02-29T15:40:11.483Z,19.80
2024-02-29T15:42:40.162Z,19.47
2024-02-29T15:45:08.262Z,19.21
2024-02-29T15:47:36.157Z,18.65
2024-02-29T15:50:03.167Z,17.92
2024-02-29T15:52:32.783Z,17.86
2024-02-29T15:55:01.681Z,18.06
2024-02-29T15:57:30.580Z,18.09
2024-02-29T15:59:58.016Z,17.72
2024-02-29T16:02:27.728Z,17.50
2024-02-29T16:04:58.198Z,17.55
2024-02-29T16:07:25.220Z,17.35
2024-02-29T16:09:57.043Z,16.67
2024-02-29T16:12:24.581Z,16.49
2024-02-29T16:14:51.790Z,16.40
2024-02-29T16:17:18.733Z,16.32
2024-02-29T16:19:50.042Z,15.84
2024-02-29T16:22:17.328Z,15.82
2024-02-29T16:24:44.319Z,15.76
2024-02-29T16:27:18.200Z,15.76
2024-02-29T16:29:46.321Z,15.48
2024-02-29T16:32:15.871Z,15.32
2024-02-29T16:34:51.169Z,14.90
2024-02-29T16:37:18.280Z,14.73
2024-02-29T16:39:46.603Z,14.55
2024-02-29T16:42:18.392Z,14.61
2024-02-29T16:44:46.482Z,14.48
2024-02-29T16:47:14.157Z,14.34
2024-02-29T16:49:41.275Z,14.22
2024-02-29T16:52:08.638Z,13.97
2024-02-29T16:54:36.067Z,13.97
2024-02-29T16:57:03.044Z,13.87
2024-02-29T16:59:33.796Z,13.55
2024-02-29T17:02:00.961Z,13.53
2024-02-29T17:04:31.673Z,13.49
2024-02-29T17:07:00.013Z,13.20
2024-02-29T17:09:26.960Z,13.05
2024-02-29T17:11:55.018Z,12.86
2024-02-29T17:14:21.992Z,12.64
2024-02-29T17:16:56.449Z,12.74
2024-02-29T17:19:23.551Z,12.62
2024-02-29T17:21:54.963Z,12.46
2024-02-29T17:24:21.963Z,12.38
2024-02-29T17:26:53.595Z,12.15
2024-02-29T17:29:24.383Z,12.21
2024-02-29T17:31:56.167Z,12.00
2024-02-29T17:34:23.139Z,11.89
2024-02-29T17:36:52.231Z,11.91
2024-02-29T17:39:19.523Z,11.88
2024-02-29T17:41:47.134Z,11.92
2024-02-29T17:44:14.064Z,11.87
2024-02-29T17:46:41.152Z,11.69
2024-02-29T17:49:11.154Z,11.73
2024-02-29T17:51:43.605Z,11.61
2024-02-29T17:54:10.669Z,11.51
2024-02-29T17:56:39.135Z,11.34
2024-02-29T17:59:07.707Z,11.34
2024-02-29T18:01:34.823Z,11.25
2024-02-29T18:04:01.902Z,11.21
2024-02-29T18:06:32.654Z,11.04
2024-02-29T18:09:00.769Z,11.10
2024-02-29T18:11:27.723Z,10.99
2024-02-29T18:13:58.859Z,11.05
2024-02-29T18:16:33.670Z,10.90
2024-02-29T18:19:01.168Z,10.89
2024-02-29T18:21:31.166Z,10.78
2024-02-29T18:24:00.642Z,10.56
2024-02-29T18:26:28.671Z,10.52
2024-02-29T18:28:58.284Z,10.59
2024-02-29T18:31:28.328Z,10.51
2024-02-29T18:33:57.181Z,10.49
2024-02-29T18:36:24.249Z,10.47
2024-02-29T18:38:51.653Z,10.33
2024-02-29T18:41:22.335Z,10.31
2024-02-29T18:43:50.608Z,10.18
2024-02-29T18:46:20.785Z,10.23
2024-02-29T18:48:47.796Z,10.22
2024-02-29T18:51:16.033Z,10.16
2024-02-29T18:53:48.084Z,9.94
2024-02-29T18:56:17.754Z,9.80
2024-02-29T18:58:47.571Z,9.71
2024-02-29T19:01:14.703Z,9.86
2024-02-29T19:03:44.032Z,9.78
2024-02-29T19:06:13.020Z,9.70
2024-02-29T19:08:42.139Z,9.70
2024-02-29T19:11:09.194Z,9.74
2024-02-29T19:13:39.113Z,9.54
2024-02-29T19:16:12.936Z,9.47
2024-02-29T19:18:39.913Z,9.40
2024-02-29T19:21:10.261Z,9.45
2024-02-29T19:23:37.301Z,9.46
2024-02-29T19:26:07.160Z,9.40
2024-02-29T19:28:37.972Z,9.26
2024-02-29T19:31:05.420Z,9.25
2024-02-29T19:33:35.631Z,9.21
2024-02-29T19:36:02.538Z,9.26
2024-02-29T19:38:32.670Z,9.23
2024-02-29T19:40:59.615Z,9.11
2024-02-29T19:43:26.699Z,9.15
2024-02-29T19:45:53.654Z,9.13
2024-02-29T19:48:20.670Z,9.18
2024-02-29T19:50:52.136Z,9.07
2024-02-29T19:53:23.497Z,9.08
2024-02-29T19:55:50.448Z,8.97
2024-02-29T19:58:18.706Z,8.92
2024-02-29T20:00:47.144Z,8.93
2024-02-29T20:03:15.335Z,8.99
2024-02-29T20:05:42.843Z,8.96
2024-02-29T20:08:13.176Z,8.90
2024-02-29T20:10:42.582Z,8.92
2024-02-29T20:13:13.611Z,8.84
2024-02-29T20:15:42.179Z,8.74
2024-02-29T20:18:09.136Z,8.75
2024-02-29T20:20:40.588Z,8.80
2024-02-29T20:23:10.554Z,8.81
2024-02-29T20:25:41.947Z,8.70
2024-02-29T20:28:09.001Z,8.66
2024-02-29T20:30:38.803Z,8.70
2024-02-29T20:33:07.554Z,8.60
2024-02-29T20:35:36.734Z,8.61
2024-02-29T20:38:04.162Z,8.46
2024-02-29T20:40:31.203Z,8.38
2024-02-29T20:43:00.793Z,8.50
2024-02-29T20:45:32.588Z,8.39
2024-02-29T20:48:05.262Z,8.36
2024-02-29T20:50:36.769Z,8.39
2024-02-29T20:53:03.798Z,8.45
2024-02-29T20:55:30.784Z,8.39
2024-02-29T20:58:02.473Z,8.35
2024-02-29T21:00:29.492Z,8.32
2024-02-29T21:02:58.873Z,8.31
2024-02-29T21:05:25.905Z,8.14
2024-02-29T21:07:54.037Z,8.18
2024-02-29T21:10:21.211Z,8.13
2024-02-29T21:12:48.225Z,8.23
2024-02-29T21:15:17.805Z,8.22
2024-02-29T21:17:44.746Z,8.12
2024-02-29T21:20:14.012Z,8.13
2024-02-29T21:22:41.146Z,8.16
2024-02-29T21:25:08.924Z,8.18
2024-02-29T21:27:38.311Z,8.18
2024-02-29T21:30:06.690Z,8.19
2024-02-29T21:32:36.588Z,7.96
2024-02-29T21:35:04.815Z,7.86
2024-02-29T21:37:32.536Z,7.96
2024-02-29T21:39:59.586Z,7.89
2024-02-29T21:42:31.009Z,7.86
2024-02-29T21:44:58.004Z,7.67
2024-02-29T21:47:25.019Z,7.79
2024-02-29T21:49:54.834Z,7.81
2024-02-29T21:52:21.972Z,7.73
2024-02-29T21:54:49.063Z,7.71
2024-02-29T21:57:16.385Z,7.68
2024-02-29T21:59:45.077Z,7.69
2024-02-29T22:02:14.433Z,7.64
2024-02-29T22:04:43.897Z,7.56
2024-02-29T22:07:16.200Z,7.62
2024-02-29T22:09:43.177Z,7.58
2024-02-29T22:12:10.185Z,7.63
2024-02-29T22:14:50.215Z,7.58
2024-02-29T22:17:17.149Z,7.54
2024-02-29T22:19:44.198Z,7.55
2024-02-29T22:22:13.850Z,7.54
2024-02-29T22:24:41.281Z,7.52
2024-02-29T22:27:08.351Z,7.56
2024-02-29T22:29:35.278Z,7.33
2024-02-29T22:32:03.695Z,7.41
2024-02-29T22:34:32.108Z,7.35
2024-02-29T22:36:59.138Z,7.34
2024-02-29T22:39:28.660Z,7.39
2024-02-29T22:42:00.952Z,7.35
2024-02-29T22:44:33.115Z,7.39
2024-02-29T22:47:00.420Z,7.35
2024-02-29T22:49:29.599Z,7.33
2024-02-29T22:51:56.715Z,7.27
2024-02-29T22:54:23.713Z,7.21
2024-02-29T22:56:53.218Z,7.25
2024-02-29T22:59:20.214Z,7.33
2024-02-29T23:01:47.356Z,7.41
2024-02-29T23:04:17.143Z,7.28
2024-02-29T23:06:44.382Z,7.22
2024-02-29T23:09:15.051Z,7.24
2024-02-29T23:11:42.275Z,7.31
2024-02-29T23:14:12.052Z,7.21
2024-02-29T23:16:39.129Z,7.16
2024-02-29T23:19:06.132Z,7.11
2024-02-29T23:21:35.476Z,7.14
2024-02-29T23:24:04.167Z,7.06
2024-02-29T23:26:31.109Z,7.06
2024-02-29T23:28:58.020Z,7.05
2024-02-29T23:31:27.954Z,6.97
2024-02-29T23:33:54.998Z,7.04
2024-02-29T23:36:22.103Z,6.87
2024-02-29T23:38:51.947Z,6.82
2024-02-29T23:41:20.421Z,6.98
2024-02-29T23:43:47.498Z,6.89
2024-02-29T23:46:16.648Z,6.86
2024-02-29T23:48:46.261Z,6.83
2024-02-29T23:51:13.282Z,6.65
2024-02-29T23:53:40.211Z,6.72
2024-02-29T23:56:07.392Z,6.85
2024-02-29T23:58:36.458Z,6.96
